Briefing drone pour Decize

Rechercher une autre localisation

Conditions de vol :


Nous sommes le : Dimanche 09 mai 2021
Il est 02:08 UTC (04:08 LT)

Lever de soleil : 03:52 UTC (05:52 LT)
Coucher de soleil : 19:32 UTC (21:32 LT)

Météo

L'essentiel des conditions de vol

VIGILANCE MÉTÉO FRANCE - Nièvre (58)
Pas de vigilances particulieres
CARTE TEMSI
CARTES DES FRONTS
METAR de LFQG
LFQG 081800Z AUTO 13007KT 100V160 CAVOK 23/13 Q1009

Date d'émission: 08/05/2021
Heure d'émission: 18:00 UTC
Vent: 130° (variable du 100° au 160°) pour 7 KT (13 km/h)
Visibilité horizontale: > 10 km
Plafond : Plafond et visibilité OK (CAVOK)
Température: 23 °C
Point de rosée: 13 °C
Humidité: 53%
Pression (QNH): 1009 hPa
Prévision 24h pour Nevers (18 km)
Vent : 166° pour 4 KT (13 km/h)
Temperature Maxi: 16 °C
Temperature Min: 16 °C
Humidité : 69%
Condition : Légère pluie



Warning: count(): Parameter must be an array or an object that implements Countable in /homepages/6/d509196549/htdocs/droneoxygene/briefing.php on line 743
WEBCAM POUR DECIZE

Réglementation

Voler en sécurité

CARTES AERONAUTIQUE 1/500.000
CARTES VAC (LFQG)
SUP AIP




Chargement des AIP...
NOTAM (DECIZE + Terrain à proximité / FIR )




Chargement des NOTAMS...
CONTACT PREFECTURE 58


Avertissement : Les données mises à disposition sont indicatives. Oxygène Drone ne pourra être tenu responsable de dégâts causés aux biens et aux personnes.